»·PEaware :: DAL213 KIDA-KGPI

DAL213 :: KIDA-KGPI

FLIGHT INFORMATION

Flight Status: Arrived
Operator:
Delta Air Lines
More flights by this operator :: More flights under this callsign
Pilot: Nicolas L. (9332)
Aircraft: BOEING 737-800
(B738)
More flights by this aircraft type
Origin: KIDA Idaho Falls Regl
United States
Destination: KGPI Glacier Park Intl
United States
More flights between these airports :: More routes between these airports
Route: +IDA MSO SKOTT
File this flight plan on PilotEdge
Remarks: Live Streaming on Twitch "DAL213" and YT
Altitude:
(Current/Filed)
33,000ft
Speed:
(Current/Filed)
400kts
Departed: 03-Oct-18 08:56 PM
Arrived: 03-Oct-18 09:51 PM
Distance/Time
Traveled:
302nm/0:55
Distance/Time
To Go:
Arrived

Flight Plot

Page will automatically refresh every two minutes.

Flight plan parsing failed; only flown route is shown


Map Options




Map Legend


Flown Route
Filed Route
Departure Airport
Arrival Airport
Navaid (VOR, NDB)
Fix

Horizontal Profiles

Position Reports

Time Latitude Longitude Heading Altitude Ground
Speed
03-Oct-18 20:36 43.515129 -112.068708 144 4749ft 0kts
03-Oct-18 20:37 43.515129 -112.068708 144 4749ft 0kts
03-Oct-18 20:38 43.515129 -112.068708 144 4749ft 0kts
03-Oct-18 20:39 43.515129 -112.068708 144 4749ft 0kts
03-Oct-18 20:40 43.515129 -112.068708 144 4749ft 0kts
03-Oct-18 20:41 43.515129 -112.068708 144 4749ft 0kts
03-Oct-18 20:42 43.515129 -112.068708 144 4749ft 0kts
03-Oct-18 20:43 43.515129 -112.068708 144 4749ft 0kts
03-Oct-18 20:44 43.515129 -112.068708 144 4749ft 0kts
03-Oct-18 20:45 43.515129 -112.068708 144 4749ft 0kts
03-Oct-18 20:46 43.515129 -112.068708 144 4749ft 0kts
03-Oct-18 20:47 43.515129 -112.068708 144 4749ft 0kts
03-Oct-18 20:48 43.515129 -112.068708 144 4749ft 0kts
03-Oct-18 20:49 43.515129 -112.068708 144 4749ft 0kts
03-Oct-18 20:50 43.515129 -112.068708 144 4749ft 0kts
03-Oct-18 20:51 43.515129 -112.068708 144 4749ft 0kts
03-Oct-18 20:52 43.515455 -112.069301 103 4749ft 2kts
03-Oct-18 20:53 43.515472 -112.069566 86 4749ft 0kts
03-Oct-18 20:54 43.515472 -112.069566 86 4749ft 0kts
03-Oct-18 20:55 43.516220 -112.068514 36 4749ft 20kts
03-Oct-18 20:56 43.517915 -112.066716 37 4749ft 16kts
03-Oct-18 20:57 43.521493 -112.064793 221 4749ft 19kts
03-Oct-18 20:58 43.496653 -112.091473 217 5399ft 164kts
03-Oct-18 20:59 43.455235 -112.113811 149 7403ft 203kts
03-Oct-18 21:00 43.468188 -112.039700 34 9417ft 270kts
03-Oct-18 21:01 43.538535 -112.026289 330 11529ft 296kts
03-Oct-18 21:02 43.621980 -112.077274 333 12992ft 358kts
03-Oct-18 21:03 43.715994 -112.131882 332 15821ft 374kts
03-Oct-18 21:04 43.814021 -112.188450 332 18711ft 388kts
03-Oct-18 21:05 43.915975 -112.247432 332 21160ft 406kts
03-Oct-18 21:06 44.022812 -112.309474 331 23317ft 423kts
03-Oct-18 21:07 44.133029 -112.373725 331 25247ft 437kts
03-Oct-18 21:08 44.246630 -112.440235 331 26909ft 449kts
03-Oct-18 21:09 44.363352 -112.508848 331 28356ft 459kts
03-Oct-18 21:10 44.481997 -112.578896 331 29560ft 467kts
03-Oct-18 21:11 44.602729 -112.650501 331 30538ft 475kts
03-Oct-18 21:12 44.724822 -112.723234 330 31596ft 475kts
03-Oct-18 21:13 44.846190 -112.795871 330 32007ft 473kts
03-Oct-18 21:14 44.966889 -112.868435 331 32007ft 469kts
03-Oct-18 21:15 45.086696 -112.940814 331 32009ft 468kts
03-Oct-18 21:16 45.206080 -113.013253 331 32013ft 467kts
03-Oct-18 21:17 45.325716 -113.086181 331 32003ft 466kts
03-Oct-18 21:18 45.444555 -113.158955 331 32018ft 465kts
03-Oct-18 21:19 45.563610 -113.232200 331 32019ft 464kts
03-Oct-18 21:20 45.681882 -113.305299 331 32022ft 463kts
03-Oct-18 21:21 45.799892 -113.378574 331 32021ft 462kts
03-Oct-18 21:22 45.918052 -113.452284 331 32021ft 462kts
03-Oct-18 21:23 46.035672 -113.525996 331 32030ft 461kts
03-Oct-18 21:24 46.153071 -113.599918 331 32029ft 458kts
03-Oct-18 21:25 46.269771 -113.673740 331 32029ft 458kts
03-Oct-18 21:26 46.386482 -113.747914 331 32027ft 459kts
03-Oct-18 21:27 46.503530 -113.822654 331 32019ft 458kts
03-Oct-18 21:28 46.619935 -113.897333 331 32014ft 457kts
03-Oct-18 21:29 46.736065 -113.972185 330 32013ft 456kts
03-Oct-18 21:30 46.852448 -114.047562 330 31294ft 456kts
03-Oct-18 21:31 46.977079 -114.087292 351 30302ft 469kts
03-Oct-18 21:32 47.108580 -114.097368 351 29306ft 474kts
03-Oct-18 21:33 47.240399 -114.106687 351 28320ft 475kts
03-Oct-18 21:34 47.371753 -114.115872 351 26330ft 465kts
03-Oct-18 21:35 47.499018 -114.124796 351 23695ft 444kts
03-Oct-18 21:36 47.619136 -114.133237 351 21094ft 406kts
03-Oct-18 21:37 47.725200 -114.152088 326 19727ft 355kts
03-Oct-18 21:38 47.801759 -114.222204 320 18664ft 294kts
03-Oct-18 21:39 47.867142 -114.284426 319 17719ft 265kts
03-Oct-18 21:40 47.926050 -114.340598 319 16847ft 248kts
03-Oct-18 21:41 47.986991 -114.399857 320 15276ft 274kts
03-Oct-18 21:42 48.051153 -114.459640 324 13863ft 267kts
03-Oct-18 21:43 48.119244 -114.508788 332 12169ft 269kts
03-Oct-18 21:44 48.192382 -114.527447 15 10638ft 274kts
03-Oct-18 21:45 48.263455 -114.479351 23 9249ft 282kts
03-Oct-18 21:46 48.335005 -114.438337 18 7970ft 265kts
03-Oct-18 21:47 48.401900 -114.397278 32 7068ft 250kts
03-Oct-18 21:48 48.432334 -114.323117 89 6379ft 182kts
03-Oct-18 21:49 48.416752 -114.259662 128 5145ft 150kts
03-Oct-18 21:50 48.383459 -114.223027 160 4278ft 155kts
03-Oct-18 21:51 48.342329 -114.225546 203 3583ft 152kts
03-Oct-18 21:52 48.309897 -114.256176 211 2978ft 74kts
03-Oct-18 21:53 48.306311 -114.258728 125 2978ft 0kts
03-Oct-18 21:54 48.308022 -114.255999 37 2978ft 11kts
03-Oct-18 21:55 48.307561 -114.253788 125 2978ft 0kts
03-Oct-18 21:56 48.307561 -114.253788 125 2978ft 0kts
03-Oct-18 21:57 48.307561 -114.253788 125 2978ft 0kts
03-Oct-18 21:58 48.307561 -114.253788 125 2978ft 0kts
03-Oct-18 21:59 48.307561 -114.253788 125 2978ft 0kts
03-Oct-18 22:00 48.307561 -114.253788 125 2978ft 0kts
03-Oct-18 22:01 48.307561 -114.253788 125 2978ft 0kts
03-Oct-18 22:02 48.307561 -114.253788 125 2978ft 0kts
03-Oct-18 22:03 48.307561 -114.253788 125 2978ft 0kts
03-Oct-18 22:04 48.307561 -114.253788 125 2978ft 0kts
03-Oct-18 22:05 48.307561 -114.253788 125 2978ft 0kts
03-Oct-18 22:06 48.307561 -114.253788 125 2978ft 0kts
03-Oct-18 22:07 48.307561 -114.253788 125 2978ft 0kts

Navigation Log

Ident Type
Flight plan parsing failed, navigation log unavailable